createdAt,value
2022-09-23T00:00:57.148Z,2.4
2022-09-23T00:01:57.339Z,2.64
2022-09-23T00:02:57.396Z,2.72
2022-09-23T00:03:57.466Z,2.8
2022-09-23T00:04:57.563Z,2.48
2022-09-23T00:05:57.712Z,2.24
2022-09-23T00:06:57.788Z,2.48
2022-09-23T00:07:57.914Z,2.32
2022-09-23T00:08:58.039Z,2.48
2022-09-23T00:09:58.112Z,2.24
2022-09-23T00:10:58.265Z,2.24
2022-09-23T00:11:58.417Z,2.32
2022-09-23T00:12:58.517Z,2.32
2022-09-23T00:13:58.619Z,2.4
2022-09-23T00:14:58.743Z,2.32
2022-09-23T00:15:58.874Z,2.24
2022-09-23T00:16:59.021Z,2.24
2022-09-23T00:17:59.075Z,2.24
2022-09-23T00:18:59.176Z,2.32
2022-09-23T00:19:59.280Z,2.32
2022-09-23T00:20:59.383Z,1.92
2022-09-23T00:21:59.537Z,2.24
2022-09-23T00:22:59.634Z,2.24
2022-09-23T00:23:59.737Z,2.32
2022-09-23T00:24:59.838Z,2.48
2022-09-23T00:25:59.943Z,2.24
2022-09-23T00:27:00.096Z,2.48
2022-09-23T00:28:00.196Z,2.32
2022-09-23T00:29:00.348Z,2.24
2022-09-23T00:30:00.478Z,2.08
2022-09-23T00:31:00.636Z,2.4
2022-09-23T00:32:00.704Z,2.24
2022-09-23T00:33:00.803Z,1.92
2022-09-23T00:34:00.905Z,2.08
2022-09-23T00:35:01.053Z,2.4
2022-09-23T00:36:01.212Z,2.32
2022-09-23T00:37:01.363Z,2.24
2022-09-23T00:38:01.518Z,2.08
2022-09-23T00:39:03.324Z,2.4
2022-09-23T00:40:01.764Z,2.64
2022-09-23T00:41:01.870Z,2.32
2022-09-23T00:42:01.968Z,1.92
2022-09-23T00:43:02.067Z,2.32
2022-09-23T00:44:02.219Z,2.24
2022-09-23T00:45:02.372Z,1.6
2022-09-23T00:46:02.543Z,1.84
2022-09-23T00:47:02.580Z,2.24
2022-09-23T00:48:02.684Z,1.6
2022-09-23T00:49:02.829Z,2
2022-09-23T00:50:02.934Z,2.08
2022-09-23T00:51:03.084Z,2.24
2022-09-23T00:52:03.186Z,2.24
2022-09-23T00:53:03.339Z,2.4
2022-09-23T00:54:03.486Z,2
2022-09-23T00:55:03.644Z,2.4
2022-09-23T00:56:03.755Z,2.24
2022-09-23T00:57:03.844Z,2.4
2022-09-23T00:58:03.950Z,2.32
2022-09-23T00:59:04.051Z,2.08
2022-09-23T01:00:04.213Z,2
2022-09-23T01:01:04.386Z,2
2022-09-23T01:02:04.482Z,2.32
2022-09-23T01:03:04.605Z,2.48
2022-09-23T01:04:04.706Z,2.32
2022-09-23T01:05:04.807Z,2.24
2022-09-23T01:06:04.909Z,2
2022-09-23T01:07:05.010Z,2.08
2022-09-23T01:08:05.114Z,2.08
2022-09-23T01:09:05.357Z,2.4
2022-09-23T01:10:05.373Z,2.72
2022-09-23T01:11:05.469Z,2.4
2022-09-23T01:12:05.619Z,2.24
2022-09-23T01:13:05.725Z,1.92
2022-09-23T01:14:05.828Z,1.92
2022-09-23T01:15:05.983Z,1.84
2022-09-23T01:16:06.134Z,1.92
2022-09-23T01:17:06.292Z,1.68
2022-09-23T01:18:06.328Z,2.08
2022-09-23T01:19:06.482Z,1.92
2022-09-23T01:20:06.589Z,2.24
2022-09-23T01:21:06.731Z,1.92
2022-09-23T01:22:06.859Z,1.84
2022-09-23T01:23:06.945Z,2.08
2022-09-23T01:24:07.096Z,1.6
2022-09-23T01:25:07.195Z,1.6
2022-09-23T01:26:07.297Z,1.52
2022-09-23T01:27:07.403Z,1.68
2022-09-23T01:28:07.498Z,1.52
2022-09-23T01:29:07.602Z,2.32
2022-09-23T01:30:07.719Z,2.4
2022-09-23T01:31:07.883Z,2.48
2022-09-23T01:32:08.014Z,2.64
2022-09-23T01:33:08.156Z,2.08
2022-09-23T01:34:08.262Z,2.4
2022-09-23T01:35:08.362Z,2
2022-09-23T01:36:08.459Z,2.24
2022-09-23T01:37:08.618Z,2
2022-09-23T01:38:08.770Z,1.84
2022-09-23T01:39:08.864Z,2.24
2022-09-23T01:40:09.047Z,2.08
2022-09-23T01:41:09.171Z,2.08
2022-09-23T01:42:09.270Z,1.92
2022-09-23T01:43:09.424Z,1.84
2022-09-23T01:44:09.572Z,2.24
2022-09-23T01:45:09.702Z,2.4
2022-09-23T01:46:09.827Z,2.48
2022-09-23T01:47:09.978Z,2.48
2022-09-23T01:48:10.119Z,2.48
2022-09-23T01:49:10.196Z,2.64
2022-09-23T01:50:10.336Z,2.72
2022-09-23T01:51:10.490Z,2.48
2022-09-23T01:52:10.590Z,2.64
2022-09-23T01:53:10.696Z,2.4
2022-09-23T01:54:10.841Z,2.48
2022-09-23T01:55:11.008Z,2.64
2022-09-23T01:56:11.147Z,2.72
2022-09-23T01:57:11.296Z,2.72
2022-09-23T01:58:11.403Z,2.72
2022-09-23T01:59:11.499Z,2.32
2022-09-23T02:00:11.611Z,2.4
2022-09-23T02:01:11.753Z,2.48
2022-09-23T02:02:11.907Z,2.64
2022-09-23T02:03:11.955Z,2.48
2022-09-23T02:04:12.058Z,2.4
2022-09-23T02:05:12.161Z,2.48
2022-09-23T02:06:12.312Z,2.64
2022-09-23T02:07:12.469Z,2.4
2022-09-23T02:08:12.566Z,2.8
2022-09-23T02:09:12.669Z,2.08
2022-09-23T02:10:12.767Z,2
2022-09-23T02:11:12.873Z,1.84
2022-09-23T02:12:13.026Z,1.84
2022-09-23T02:13:13.174Z,1.52
2022-09-23T02:14:13.275Z,1.92
2022-09-23T02:15:13.391Z,2.24
2022-09-23T02:16:13.515Z,2.08
2022-09-23T02:17:13.638Z,2.24
2022-09-23T02:18:13.733Z,2.48
2022-09-23T02:19:13.837Z,2.4
2022-09-23T02:20:13.938Z,2.64
2022-09-23T02:21:14.087Z,2.64
2022-09-23T02:22:14.192Z,2.48
2022-09-23T02:23:14.292Z,2.8
2022-09-23T02:24:14.392Z,2.64
2022-09-23T02:25:14.495Z,2.48
2022-09-23T02:26:14.597Z,2.72
2022-09-23T02:27:14.698Z,2.48
2022-09-23T02:28:14.800Z,2.24
2022-09-23T02:29:14.952Z,2.32
2022-09-23T02:30:15.114Z,2.32
2022-09-23T02:31:15.207Z,2.48
2022-09-23T02:32:15.328Z,2.4
2022-09-23T02:33:15.474Z,2.72
2022-09-23T02:34:15.565Z,1.52
2022-09-23T02:35:15.697Z,1.6
2022-09-23T02:36:15.763Z,1.68
2022-09-23T02:37:15.923Z,2
2022-09-23T02:38:16.068Z,2.48
2022-09-23T02:39:16.222Z,2.32
2022-09-23T02:40:16.369Z,2.48
2022-09-23T02:41:16.425Z,2.4
2022-09-23T02:42:16.527Z,2.64
2022-09-23T02:43:16.680Z,2.8
2022-09-23T02:44:16.778Z,2.4
2022-09-23T02:45:16.882Z,2.72
2022-09-23T02:46:17.054Z,2.72
2022-09-23T02:47:17.080Z,2.8
2022-09-23T02:48:17.185Z,2.64
2022-09-23T02:49:17.338Z,1.92
2022-09-23T02:50:17.442Z,1.84
2022-09-23T02:51:17.539Z,1.84
2022-09-23T02:52:17.734Z,1.6
2022-09-23T02:53:17.790Z,1.52
2022-09-23T02:54:17.954Z,1.68
2022-09-23T02:55:18.062Z,1.84
2022-09-23T02:56:18.155Z,1.68
2022-09-23T02:57:18.354Z,1.68
2022-09-23T02:58:18.408Z,2
2022-09-23T02:59:18.506Z,1.68
2022-09-23T03:00:18.619Z,1.92
2022-09-23T03:01:18.851Z,1.84
2022-09-23T03:02:18.933Z,1.84
2022-09-23T03:03:18.961Z,2.24
2022-09-23T03:04:19.063Z,2.24
2022-09-23T03:05:19.167Z,1.6
2022-09-23T03:06:19.268Z,1.68
2022-09-23T03:07:19.366Z,2.24
2022-09-23T03:08:19.470Z,1.84
2022-09-23T03:09:19.572Z,1.68
2022-09-23T03:10:19.718Z,1.92
2022-09-23T03:11:19.824Z,1.52
2022-09-23T03:12:19.924Z,1.84
2022-09-23T03:13:20.046Z,1.68
2022-09-23T03:14:20.129Z,1.52
2022-09-23T03:15:20.241Z,1.44
2022-09-23T03:16:20.356Z,1.44
2022-09-23T03:17:20.437Z,1.6
2022-09-23T03:18:20.541Z,1.52
2022-09-23T03:19:20.638Z,1.84
2022-09-23T03:20:20.742Z,1.92
2022-09-23T03:21:20.841Z,2
2022-09-23T03:22:20.943Z,2
2022-09-23T03:23:21.099Z,1.84
2022-09-23T03:24:21.248Z,1.68
2022-09-23T03:25:21.345Z,1.28
2022-09-23T03:26:21.450Z,1.6
2022-09-23T03:27:21.552Z,2
2022-09-23T03:28:21.654Z,1.68
2022-09-23T03:29:21.755Z,1.92
2022-09-23T03:30:21.863Z,2.32
2022-09-23T03:31:21.993Z,2.24
2022-09-23T03:32:22.059Z,2.24
2022-09-23T03:33:24.743Z,2.32
2022-09-23T03:34:22.260Z,2.24
2022-09-23T03:35:22.363Z,2.08
2022-09-23T03:36:22.471Z,2.08
2022-09-23T03:37:22.617Z,1.84
2022-09-23T03:38:22.774Z,1.68
2022-09-23T03:39:22.878Z,2.08
2022-09-23T03:40:23.078Z,1.6
2022-09-23T03:41:23.134Z,1.68
2022-09-23T03:42:23.243Z,1.84
2022-09-23T03:43:23.334Z,1.68
2022-09-23T03:44:23.438Z,1.84
2022-09-23T03:45:23.701Z,1.84
2022-09-23T03:46:23.788Z,1.84
2022-09-23T03:47:23.938Z,1.92
2022-09-23T03:48:24.044Z,2.08
2022-09-23T03:49:24.199Z,2.48
2022-09-23T03:50:24.295Z,2.4
2022-09-23T03:51:24.440Z,2.08
2022-09-23T03:52:24.543Z,1.92
2022-09-23T03:53:24.644Z,1.92
2022-09-23T03:54:24.751Z,1.68
2022-09-23T03:55:24.850Z,1.68
2022-09-23T03:56:24.998Z,1.28
2022-09-23T03:57:25.105Z,1.6
2022-09-23T03:58:25.256Z,2
2022-09-23T03:59:25.353Z,1.52
2022-09-23T04:00:25.520Z,1.92
2022-09-23T04:01:25.695Z,2
2022-09-23T04:02:25.762Z,2.24
2022-09-23T04:03:25.840Z,2.24
2022-09-23T04:04:25.965Z,1.68
2022-09-23T04:05:26.114Z,1.6
2022-09-23T04:06:26.220Z,2
2022-09-23T04:07:26.318Z,2
2022-09-23T04:08:26.422Z,2.24
2022-09-23T04:09:26.521Z,2.4
2022-09-23T04:10:26.634Z,2.24
2022-09-23T04:11:26.775Z,2.32
2022-09-23T04:12:26.928Z,2.48
2022-09-23T04:13:27.030Z,2.4
2022-09-23T04:14:27.135Z,2.64
2022-09-23T04:15:27.245Z,2.48
2022-09-23T04:16:27.441Z,2.24
2022-09-23T04:17:27.449Z,2.08
2022-09-23T04:18:27.592Z,2
2022-09-23T04:19:27.692Z,1.92
2022-09-23T04:20:27.807Z,1.84
2022-09-23T04:21:27.907Z,1.84
2022-09-23T04:22:28.023Z,1.92
2022-09-23T04:23:28.142Z,1.68
2022-09-23T04:24:28.305Z,1.6
2022-09-23T04:25:28.460Z,1.68
2022-09-23T04:26:28.564Z,1.84
2022-09-23T04:27:28.660Z,2
2022-09-23T04:28:28.807Z,2.24
2022-09-23T04:29:28.910Z,1.92
2022-09-23T04:30:29.073Z,1.6
2022-09-23T04:31:29.243Z,1.6
2022-09-23T04:32:29.265Z,1.68
2022-09-23T04:33:29.366Z,2
2022-09-23T04:34:29.519Z,2.24
2022-09-23T04:35:29.615Z,2.08
2022-09-23T04:36:29.719Z,1.92
2022-09-23T04:37:29.819Z,2
2022-09-23T04:38:29.923Z,2.08
2022-09-23T04:39:30.023Z,1.68
2022-09-23T04:40:30.180Z,1.84
2022-09-23T04:41:30.237Z,2
2022-09-23T04:42:30.381Z,1.52
2022-09-23T04:43:30.480Z,1.68
2022-09-23T04:44:30.635Z,1.52
2022-09-23T04:45:30.801Z,2.08
2022-09-23T04:46:30.995Z,2.24
2022-09-23T04:47:31.088Z,2.24
2022-09-23T04:48:31.484Z,2.24
2022-09-23T04:49:31.356Z,2.24
2022-09-23T04:50:31.443Z,1.52
2022-09-23T04:51:31.597Z,1.6
2022-09-23T04:52:31.692Z,1.52
2022-09-23T04:53:31.797Z,1.68
2022-09-23T04:54:31.950Z,1.84
2022-09-23T04:55:32.101Z,1.84
2022-09-23T04:56:32.211Z,1.84
2022-09-23T04:57:32.303Z,1.92
2022-09-23T04:58:32.460Z,1.68
2022-09-23T04:59:32.560Z,1.84
2022-09-23T05:00:32.720Z,2
2022-09-23T05:01:32.868Z,2.08
2022-09-23T05:02:32.927Z,1.92
2022-09-23T05:03:33.070Z,1.84
2022-09-23T05:04:33.196Z,1.68
2022-09-23T05:05:33.321Z,1.84
2022-09-23T05:06:33.424Z,1.6
2022-09-23T05:07:33.581Z,1.92
2022-09-23T05:08:33.680Z,2.08
2022-09-23T05:09:33.826Z,2.24
2022-09-23T05:10:33.929Z,2.24
2022-09-23T05:11:34.035Z,2.32
2022-09-23T05:12:34.139Z,2.24
2022-09-23T05:13:34.287Z,1.68
2022-09-23T05:14:34.388Z,1.6
2022-09-23T05:15:34.494Z,1.92
2022-09-23T05:16:34.669Z,2
2022-09-23T05:17:34.747Z,2.24
2022-09-23T05:18:34.842Z,2
2022-09-23T05:19:34.960Z,1.68
2022-09-23T05:20:35.048Z,1.68
2022-09-23T05:21:35.197Z,1.92
2022-09-23T05:22:35.299Z,1.92
2022-09-23T05:23:35.401Z,2.24
2022-09-23T05:24:35.524Z,2.32
2022-09-23T05:25:38.285Z,2.08
2022-09-23T05:26:35.809Z,2.08
2022-09-23T05:27:35.911Z,2.24
2022-09-23T05:28:36.061Z,2.08
2022-09-23T05:29:36.169Z,2.4
2022-09-23T05:30:36.266Z,2.4
2022-09-23T05:31:36.460Z,2.48
2022-09-23T05:32:36.514Z,2.4
2022-09-23T05:33:36.670Z,2.72
2022-09-23T05:34:36.767Z,2.48
2022-09-23T05:35:36.870Z,2.48
2022-09-23T05:36:38.535Z,2.72
2022-09-23T05:37:37.076Z,2.64
2022-09-23T05:38:37.174Z,2.88
2022-09-23T05:39:37.275Z,2.88
2022-09-23T05:40:37.433Z,2.88
2022-09-23T05:41:37.532Z,2.8
2022-09-23T05:42:37.682Z,2.32
2022-09-23T05:43:37.785Z,2.32
2022-09-23T05:44:37.937Z,2.4
2022-09-23T05:45:38.088Z,2.32
2022-09-23T05:46:38.299Z,2.64
2022-09-23T05:47:38.395Z,2.72
2022-09-23T05:48:38.495Z,3.2
2022-09-23T05:49:58.433Z,3.28
2022-09-23T05:50:38.750Z,3.6
2022-09-23T05:51:38.853Z,4.08
2022-09-23T05:52:38.999Z,3.68
2022-09-23T05:53:39.098Z,3.52
2022-09-23T05:54:39.212Z,3.28
2022-09-23T05:55:39.304Z,3.6
2022-09-23T05:56:39.408Z,3.68
2022-09-23T05:57:39.506Z,3.52
2022-09-23T05:58:39.608Z,3.68
2022-09-23T05:59:39.760Z,3.84
2022-09-23T06:00:39.914Z,4
2022-09-23T06:01:40.084Z,4
2022-09-23T06:02:40.152Z,4
2022-09-23T06:03:40.272Z,4.08
2022-09-23T06:04:40.372Z,4.16
2022-09-23T06:05:40.531Z,4.32
2022-09-23T06:06:40.674Z,4.16
2022-09-23T06:07:40.788Z,4.4
2022-09-23T06:08:40.960Z,4.64
2022-09-23T06:09:41.034Z,4.72
2022-09-23T06:10:41.144Z,5.04
2022-09-23T06:11:41.232Z,5.12
2022-09-23T06:12:41.386Z,5.92
2022-09-23T06:13:41.485Z,6.64
2022-09-23T06:14:41.642Z,7.44
2022-09-23T06:15:41.806Z,7.84
2022-09-23T06:16:41.943Z,8.08
2022-09-23T06:17:42.041Z,8.88
2022-09-23T06:18:42.143Z,8.4
2022-09-23T06:19:42.245Z,9.28
2022-09-23T06:20:42.344Z,9.2
2022-09-23T06:21:42.464Z,9.599999
2022-09-23T06:22:42.604Z,10.08
2022-09-23T06:23:42.702Z,10.719999
2022-09-23T06:24:42.854Z,10.8
2022-09-23T06:25:42.959Z,10.8
2022-09-23T06:26:43.112Z,10.88
2022-09-23T06:27:43.212Z,11.28
2022-09-23T06:28:43.312Z,12.08
2022-09-23T06:29:43.415Z,12
2022-09-23T06:30:43.517Z,11.92
2022-09-23T06:31:43.768Z,11.84
2022-09-23T06:32:43.769Z,12.88
2022-09-23T06:33:43.921Z,13.44
2022-09-23T06:34:50.569Z,12.88
2022-09-23T06:35:52.902Z,13.28
2022-09-23T06:36:45.284Z,13.28
2022-09-23T06:37:44.379Z,14.24
2022-09-23T06:38:44.481Z,14.08
2022-09-23T06:39:44.585Z,14.24
2022-09-23T06:40:44.709Z,14.24
2022-09-23T06:41:44.783Z,13.12
2022-09-23T06:42:47.098Z,13.52
2022-09-23T06:43:45.037Z,14.24
2022-09-23T06:44:45.196Z,14
2022-09-23T06:45:45.342Z,14.24
2022-09-23T06:46:45.521Z,15.04
2022-09-23T06:47:45.678Z,14.32
2022-09-23T06:48:46.383Z,14.08
2022-09-23T06:49:45.931Z,15.599999
2022-09-23T06:50:46.054Z,16.08
2022-09-23T06:51:46.158Z,15.44
2022-09-23T06:52:46.304Z,15.92
2022-09-23T06:53:46.455Z,15.839999
2022-09-23T06:54:46.557Z,15.44
2022-09-23T06:55:46.662Z,15.679999
2022-09-23T06:56:46.811Z,15.599999
2022-09-23T06:57:46.959Z,15.599999
2022-09-23T06:58:47.061Z,15.04
2022-09-23T06:59:47.221Z,15.44
2022-09-23T07:00:47.318Z,15.44
2022-09-23T07:01:47.569Z,15.28
2022-09-23T07:02:47.646Z,15.44
2022-09-23T07:03:47.673Z,15.52
2022-09-23T07:04:47.833Z,15.52
2022-09-23T07:05:47.990Z,15.599999
2022-09-23T07:06:48.075Z,16
2022-09-23T07:07:48.231Z,16.64
2022-09-23T07:08:48.327Z,16.08
2022-09-23T07:09:48.438Z,16.72
2022-09-23T07:10:48.586Z,17.2
2022-09-23T07:11:48.687Z,17.12
2022-09-23T07:12:48.791Z,17.92
2022-09-23T07:13:48.892Z,17.76
2022-09-23T07:14:48.998Z,18.4
2022-09-23T07:15:49.217Z,18.48
2022-09-23T07:16:49.308Z,17.92
2022-09-23T07:17:49.394Z,18.88
2022-09-23T07:18:49.505Z,19.76
2022-09-23T07:19:49.602Z,20.08
2022-09-23T07:20:49.709Z,20
2022-09-23T07:21:49.808Z,20.08
2022-09-23T07:22:49.953Z,20.48
2022-09-23T07:23:50.142Z,18.88
2022-09-23T07:24:50.261Z,18.88
2022-09-23T07:25:50.432Z,19.2
2022-09-23T07:26:50.463Z,19.2
2022-09-23T07:27:50.612Z,20.08
2022-09-23T07:28:50.771Z,19.12
2022-09-23T07:29:50.931Z,19.12
2022-09-23T07:30:56.975Z,19.12
2022-09-23T07:31:51.334Z,20.32
2022-09-23T07:32:51.286Z,20.64
2022-09-23T07:33:51.372Z,20
2022-09-23T07:34:51.539Z,19.68
2022-09-23T07:35:51.625Z,19.04
2022-09-23T07:36:51.759Z,19.04
2022-09-23T07:37:51.864Z,19.12
2022-09-23T07:38:52.011Z,19.68
2022-09-23T07:39:52.113Z,19.68
2022-09-23T07:40:52.255Z,19.68
2022-09-23T07:41:52.343Z,19.28
2022-09-23T07:42:52.489Z,18.24
2022-09-23T07:43:52.588Z,16.88
2022-09-23T07:44:52.705Z,16.64
2022-09-23T07:45:52.907Z,17.04
2022-09-23T07:46:52.991Z,17.2
2022-09-23T07:47:53.097Z,17.68
2022-09-23T07:48:53.202Z,17.92
2022-09-23T07:49:53.350Z,18.88
2022-09-23T07:50:53.451Z,18.32
2022-09-23T07:51:53.557Z,18.8
2022-09-23T07:52:53.694Z,18.48
2022-09-23T07:53:53.806Z,19.44
2022-09-23T07:54:53.908Z,19.76
2022-09-23T07:55:54.008Z,19.44
2022-09-23T07:56:54.109Z,19.28
2022-09-23T07:57:54.219Z,20.4
2022-09-23T07:58:54.312Z,20.32
2022-09-23T07:59:54.425Z,19.6
2022-09-23T08:00:54.517Z,19.68
2022-09-23T08:01:54.677Z,20.64
2022-09-23T08:02:54.756Z,19.6
2022-09-23T08:03:54.828Z,19.52
2022-09-23T08:04:54.927Z,19.52
2022-09-23T08:05:55.075Z,19.04
2022-09-23T08:06:55.180Z,18
2022-09-23T08:07:55.329Z,17.92
2022-09-23T08:08:55.438Z,17.52
2022-09-23T08:09:55.531Z,18.48
2022-09-23T08:10:55.684Z,18.48
2022-09-23T08:11:55.794Z,18.24
2022-09-23T08:12:55.939Z,18
2022-09-23T08:13:56.090Z,17.52
2022-09-23T08:14:56.210Z,17.92
2022-09-23T08:15:56.368Z,17.92
2022-09-23T08:16:56.494Z,17.28
2022-09-23T08:17:56.645Z,18.08
2022-09-23T08:18:56.798Z,18.08
2022-09-23T08:19:56.847Z,18.32
2022-09-23T08:20:56.954Z,17.44
2022-09-23T08:21:57.053Z,17.52
2022-09-23T08:22:57.164Z,18.32
2022-09-23T08:23:57.262Z,18.24
2022-09-23T08:24:57.426Z,18.32
2022-09-23T08:25:58.935Z,17.92
2022-09-23T08:26:57.669Z,18.4
2022-09-23T08:27:57.762Z,18.08
2022-09-23T08:28:57.867Z,18.24
2022-09-23T08:29:57.991Z,18.24
2022-09-23T08:30:58.183Z,19.12
2022-09-23T08:31:58.180Z,18.72
2022-09-23T08:32:58.277Z,20
2022-09-23T08:33:58.430Z,19.92
2022-09-23T08:34:58.531Z,19.52
2022-09-23T08:35:58.679Z,19.6
2022-09-23T08:36:58.787Z,19.12
2022-09-23T08:37:58.932Z,19.52
2022-09-23T08:38:59.031Z,20.64
2022-09-23T08:39:59.135Z,20.88
2022-09-23T08:40:59.236Z,20.88
2022-09-23T08:41:59.424Z,21.92
2022-09-23T08:42:59.439Z,20.88
2022-09-23T08:43:59.647Z,21.84
2022-09-23T08:44:59.753Z,22.88
2022-09-23T08:45:59.856Z,21.12
2022-09-23T08:46:59.997Z,18.8
2022-09-23T08:48:00.146Z,21.04
2022-09-23T08:49:00.251Z,20.24
2022-09-23T08:50:00.401Z,18.72
2022-09-23T08:51:00.557Z,20.72
2022-09-23T08:52:00.654Z,20.4
2022-09-23T08:53:00.807Z,20.32
2022-09-23T08:54:00.914Z,20.64
2022-09-23T08:55:01.011Z,21.68
2022-09-23T08:56:01.113Z,21.84
2022-09-23T08:57:01.210Z,21.68
2022-09-23T08:58:23.797Z,21.2
2022-09-23T08:59:01.442Z,20.88
2022-09-23T09:00:01.534Z,22.8
2022-09-23T09:01:01.719Z,21.44
2022-09-23T09:02:01.779Z,21.52
2022-09-23T09:03:01.925Z,21.52
2022-09-23T09:04:02.078Z,21.92
2022-09-23T09:05:02.223Z,21.28
2022-09-23T09:06:02.332Z,21.12
2022-09-23T09:07:18.249Z,22.72
2022-09-23T09:08:02.537Z,23.2
2022-09-23T09:09:02.676Z,22.48
2022-09-23T09:10:02.786Z,22.64
2022-09-23T09:11:02.891Z,22.4
2022-09-23T09:12:02.989Z,23.12
2022-09-23T09:13:03.088Z,23.2
2022-09-23T09:14:03.241Z,22.24
2022-09-23T09:15:03.407Z,20.48
2022-09-23T09:16:03.618Z,19.76
2022-09-23T09:17:03.697Z,21.84
2022-09-23T09:18:03.793Z,22.24
2022-09-23T09:19:03.850Z,21.44
2022-09-23T09:20:04.007Z,21.44
2022-09-23T09:21:04.160Z,20.4
2022-09-23T09:22:04.269Z,20
2022-09-23T09:23:04.357Z,19.44
2022-09-23T09:24:04.459Z,18.88
2022-09-23T09:25:04.570Z,18.8
2022-09-23T09:26:04.737Z,19.28
2022-09-23T09:27:04.871Z,19.92
2022-09-23T09:28:05.025Z,19.68
2022-09-23T09:29:17.011Z,20.32
2022-09-23T09:30:05.269Z,19.44
2022-09-23T09:31:05.391Z,18.88
2022-09-23T09:32:05.530Z,20.4
2022-09-23T09:33:05.634Z,19.6
2022-09-23T09:34:05.779Z,20.24
2022-09-23T09:35:05.900Z,20.32
2022-09-23T09:36:05.984Z,20.64
2022-09-23T09:37:07.139Z,20.4
2022-09-23T09:38:06.241Z,19.6
2022-09-23T09:39:06.491Z,20.72
2022-09-23T09:40:06.529Z,19.6
2022-09-23T09:41:06.640Z,20.88
2022-09-23T09:42:06.792Z,21.52
2022-09-23T09:43:06.893Z,20.24
2022-09-23T09:44:07.058Z,20.32
2022-09-23T09:45:07.161Z,21.28
2022-09-23T09:46:07.304Z,21.92
2022-09-23T09:47:07.400Z,21.44
2022-09-23T09:48:07.503Z,20.64
2022-09-23T09:49:07.713Z,20
2022-09-23T09:50:07.777Z,21.2
2022-09-23T09:51:08.059Z,21.68
2022-09-23T09:52:08.164Z,20.8
2022-09-23T09:53:08.210Z,22.72
2022-09-23T09:54:08.317Z,22.4
2022-09-23T09:55:08.461Z,23.6
2022-09-23T09:56:08.560Z,22
2022-09-23T09:57:08.660Z,21.44
2022-09-23T09:58:08.762Z,20.88
2022-09-23T09:59:08.859Z,20.8
2022-09-23T10:00:08.978Z,21.04
2022-09-23T10:01:09.139Z,21.52
2022-09-23T10:02:09.175Z,24
2022-09-23T10:03:09.331Z,21.68
2022-09-23T10:04:09.484Z,22.4
2022-09-23T10:05:09.597Z,22.4
2022-09-23T10:06:09.730Z,21.28
2022-09-23T10:07:09.875Z,21.28
2022-09-23T10:08:09.977Z,20.48
2022-09-23T10:09:10.101Z,20.64
2022-09-23T10:10:22.006Z,20.24
2022-09-23T10:11:10.284Z,20.72
2022-09-23T10:12:10.387Z,21.6
2022-09-23T10:13:10.535Z,20.48
2022-09-23T10:14:10.687Z,22
2022-09-23T10:15:10.848Z,23.84
2022-09-23T10:16:10.993Z,24.8
2022-09-23T10:17:11.145Z,25.92
2022-09-23T10:18:11.245Z,26.4
2022-09-23T10:19:11.392Z,25.12
2022-09-23T10:20:11.492Z,27.28
2022-09-23T10:21:11.602Z,24.24
2022-09-23T10:22:11.703Z,25.04
2022-09-23T10:23:11.866Z,25.04
2022-09-23T10:24:11.952Z,22.4
2022-09-23T10:25:12.053Z,22.64
2022-09-23T10:26:12.205Z,22.32
2022-09-23T10:27:12.314Z,22.4
2022-09-23T10:28:12.459Z,24
2022-09-23T10:29:12.609Z,23.52
2022-09-23T10:30:12.741Z,24.64
2022-09-23T10:31:12.925Z,24.08
2022-09-23T10:32:12.966Z,25.2
2022-09-23T10:33:13.041Z,25.68
2022-09-23T10:34:13.167Z,24
2022-09-23T10:35:13.295Z,24.32
2022-09-23T10:36:13.438Z,22.08
2022-09-23T10:37:13.577Z,22.08
2022-09-23T10:38:13.680Z,21.04
2022-09-23T10:39:13.782Z,20.88
2022-09-23T10:40:13.956Z,21.28
2022-09-23T10:41:14.090Z,20.4
2022-09-23T10:42:14.241Z,20.64
2022-09-23T10:43:14.338Z,19.76
2022-09-23T10:44:14.455Z,20.8
2022-09-23T10:45:14.608Z,20.24
2022-09-23T10:46:14.763Z,20.4
2022-09-23T10:47:14.845Z,21.52
2022-09-23T10:48:15.007Z,23.12
2022-09-23T10:49:15.153Z,23.92
2022-09-23T10:50:15.340Z,24.24
2022-09-23T10:51:15.412Z,24.32
2022-09-23T10:52:15.510Z,25.04
2022-09-23T10:53:15.664Z,24.64
2022-09-23T10:54:15.816Z,25.04
2022-09-23T10:55:15.969Z,23.84
2022-09-23T10:56:16.072Z,23.84
2022-09-23T10:57:16.222Z,23.6
2022-09-23T10:58:16.323Z,23.6
2022-09-23T10:59:16.426Z,24.8
2022-09-23T11:00:16.582Z,24.8
2022-09-23T11:01:16.753Z,23.84
2022-09-23T11:02:16.839Z,22.4
2022-09-23T11:03:16.937Z,21.04
2022-09-23T11:04:17.129Z,20.64
2022-09-23T11:05:17.245Z,20.72
2022-09-23T11:06:17.351Z,20.8
2022-09-23T11:07:17.443Z,21.28
2022-09-23T11:08:17.795Z,21.6
2022-09-23T11:09:17.646Z,22.4
2022-09-23T11:10:23.520Z,22
2022-09-23T11:11:17.902Z,21.12
2022-09-23T11:12:18.002Z,20.4
2022-09-23T11:13:18.154Z,21.6
2022-09-23T11:14:18.309Z,22.4
2022-09-23T11:15:18.432Z,21.44
2022-09-23T11:16:18.625Z,21.28
2022-09-23T11:17:18.662Z,21.84
2022-09-23T11:18:18.767Z,22.24
2022-09-23T11:19:18.873Z,20.88
2022-09-23T11:20:19.016Z,21.04
2022-09-23T11:21:19.172Z,20.64
2022-09-23T11:22:19.279Z,20.72
2022-09-23T11:23:19.423Z,20.48
2022-09-23T11:24:19.579Z,21.52
2022-09-23T11:25:19.679Z,22.8
2022-09-23T11:26:19.787Z,23.68
2022-09-23T11:27:19.942Z,21.44
2022-09-23T11:28:20.097Z,21.2
2022-09-23T11:29:20.186Z,22.24
2022-09-23T11:30:20.381Z,21.2
2022-09-23T11:31:20.581Z,21.2
2022-09-23T11:32:20.596Z,23.04
2022-09-23T11:33:20.744Z,22.88
2022-09-23T11:34:20.847Z,23.04
2022-09-23T11:35:20.999Z,21.84
2022-09-23T11:36:21.110Z,20.48
2022-09-23T11:37:21.204Z,20.88
2022-09-23T11:38:21.308Z,21.28
2022-09-23T11:39:21.415Z,22.4
2022-09-23T11:40:21.567Z,22.4
2022-09-23T11:41:21.661Z,21.68
2022-09-23T11:42:21.765Z,21.52
2022-09-23T11:43:21.875Z,22
2022-09-23T11:44:21.973Z,21.44
2022-09-23T11:45:22.077Z,20.48
2022-09-23T11:46:22.267Z,20.48
2022-09-23T11:47:22.324Z,20.48
2022-09-23T11:48:22.473Z,19.76
2022-09-23T11:49:22.643Z,19.44
2022-09-23T11:50:22.733Z,19.12
2022-09-23T11:51:22.832Z,18.8
2022-09-23T11:52:22.929Z,18.48
2022-09-23T11:53:23.045Z,19.04
2022-09-23T11:54:23.145Z,18.48
2022-09-23T11:55:23.449Z,18.8
2022-09-23T11:56:33.221Z,19.68
2022-09-23T11:57:23.493Z,20.32
2022-09-23T11:58:25.844Z,19.28
2022-09-23T11:59:30.407Z,20.32
2022-09-23T12:00:23.807Z,19.44
2022-09-23T12:01:29.845Z,19.52
2022-09-23T12:02:28.298Z,18.4
2022-09-23T12:03:32.212Z,18.4
2022-09-23T12:04:24.505Z,18.72
2022-09-23T12:05:24.407Z,19.2
2022-09-23T12:06:24.458Z,19.52
2022-09-23T12:07:24.562Z,19.76
2022-09-23T12:08:24.661Z,19.68
2022-09-23T12:09:41.306Z,19.76
2022-09-23T12:10:24.864Z,20.4
2022-09-23T12:11:24.971Z,21.52
2022-09-23T12:12:27.077Z,21.2
2022-09-23T12:13:25.221Z,20.24
2022-09-23T12:14:25.377Z,19.92
2022-09-23T12:15:25.541Z,19.28
2022-09-23T12:16:25.734Z,20.32
2022-09-23T12:17:25.831Z,21.04
2022-09-23T12:18:25.935Z,21.12
2022-09-23T12:19:26.029Z,20.08
2022-09-23T12:20:26.135Z,19.04
2022-09-23T12:21:46.138Z,18.48
2022-09-23T12:22:26.391Z,18.4
2022-09-23T12:23:26.494Z,20
2022-09-23T12:24:26.704Z,20.08
2022-09-23T12:25:26.746Z,20.08
2022-09-23T12:26:26.898Z,19.76
2022-09-23T12:27:26.996Z,19.12
2022-09-23T12:28:27.097Z,19.28
2022-09-23T12:29:29.842Z,19.76
2022-09-23T12:30:27.431Z,19.76
2022-09-23T12:31:27.461Z,19.76
2022-09-23T12:32:27.605Z,19.44
2022-09-23T12:33:27.763Z,18.88
2022-09-23T12:34:27.864Z,18.8
2022-09-23T12:35:27.964Z,19.2
2022-09-23T12:36:28.071Z,19.2
2022-09-23T12:37:28.165Z,19.2
2022-09-23T12:38:28.319Z,19.04
2022-09-23T12:39:28.418Z,18.64
2022-09-23T12:40:28.629Z,18.32
2022-09-23T12:41:28.676Z,18.4
2022-09-23T12:42:31.049Z,18.24
2022-09-23T12:43:28.983Z,18.88
2022-09-23T12:44:29.090Z,18.88
2022-09-23T12:45:29.189Z,18.72
2022-09-23T12:46:29.278Z,17.76
2022-09-23T12:47:29.391Z,18.4
2022-09-23T12:48:29.534Z,18.72
2022-09-23T12:49:29.932Z,19.28
2022-09-23T12:50:29.787Z,19.12
2022-09-23T12:51:29.889Z,19.28
2022-09-23T12:52:30.240Z,18.48
2022-09-23T12:53:30.100Z,17.92
2022-09-23T12:54:30.495Z,17.68
2022-09-23T12:55:30.354Z,17.92
2022-09-23T12:56:30.512Z,18
2022-09-23T12:57:30.604Z,18.32
2022-09-23T12:58:30.716Z,17.6
2022-09-23T12:59:30.854Z,17.2
2022-09-23T13:00:33.625Z,17.12
2022-09-23T13:01:31.319Z,17.2
2022-09-23T13:02:31.282Z,17.6
2022-09-23T13:03:31.369Z,17.52
2022-09-23T13:04:31.515Z,17.92
2022-09-23T13:05:31.618Z,17.6
2022-09-23T13:06:31.769Z,17.6
2022-09-23T13:07:31.924Z,17.76
2022-09-23T13:08:32.027Z,18.48
2022-09-23T13:09:32.121Z,19.2
2022-09-23T13:10:32.233Z,19.6
2022-09-23T13:11:32.325Z,20.72
2022-09-23T13:12:32.478Z,21.12
2022-09-23T13:13:32.629Z,20.08
2022-09-23T13:14:32.751Z,20.64
2022-09-23T13:15:32.842Z,21.84